Time;durP1;ratioP1;P1;durP2;ratioP2;P2;SDS_P1;SDS_P2;PMS_P1;PMS_P2;Temp;Humidity;BMP_temperature;BMP_pressure;BME280_temperature;BME280_humidity;BME280_pressure;Samples;Min_cycle;Max_cycle;Signal;HPM_P1;HPM_P2
2023/01/17 00:01:32;;;;;;;2.13;1.00;;;2.40;99.90;;;;;;5031368;28;20473;-82
2023/01/17 00:12:10;;;;;;;2.43;0.80;;;2.20;99.90;;;;;;5033278;28;20095;-82
2023/01/17 00:14:36;;;;;;;1.77;0.90;;;2.10;99.90;;;;;;5033886;28;20473;-82
2023/01/17 00:17:02;;;;;;;1.27;1.00;;;2.10;99.90;;;;;;5034132;28;20025;-82
2023/01/17 01:34:06;;;;;;;1.80;0.83;;;2.30;99.90;;;;;;5017523;28;20052;-82
2023/01/17 01:36:31;;;;;;;2.07;0.90;;;2.30;99.90;;;;;;5033378;28;20033;-82
2023/01/17 01:38:57;;;;;;;3.87;0.90;;;2.30;99.90;;;;;;5013836;28;20064;-82
2023/01/17 01:41:22;;;;;;;2.27;1.10;;;2.20;99.90;;;;;;5033484;28;20402;-82
2023/01/17 01:43:53;;;;;;;1.53;0.70;;;2.10;99.90;;;;;;5030261;28;20501;-82
2023/01/17 01:46:35;;;;;;;1.77;0.90;;;2.10;99.90;;;;;;5033610;28;20391;-82
2023/01/17 01:49:23;;;;;;;2.27;0.80;;;2.00;99.90;;;;;;5013617;28;20033;-82
2023/01/17 01:52:02;;;;;;;1.23;0.80;;;2.00;99.90;;;;;;5012966;28;20056;-82
2023/01/17 01:54:40;;;;;;;2.27;0.80;;;1.90;99.90;;;;;;5033093;28;20048;-82
2023/01/17 01:57:10;;;;;;;2.10;0.90;;;1.90;99.90;;;;;;5016365;28;20025;-82
2023/01/17 01:59:40;;;;;;;1.43;0.80;;;1.90;99.90;;;;;;5029288;28;20021;-82
2023/01/17 02:02:06;;;;;;;2.20;0.97;;;1.90;99.90;;;;;;5033178;28;20014;-82
2023/01/17 02:04:32;;;;;;;1.47;0.90;;;1.90;99.90;;;;;;5023933;28;20021;-82
2023/01/17 02:07:06;;;;;;;2.33;0.80;;;1.80;99.90;;;;;;5032733;28;20458;-82
2023/01/17 02:09:31;;;;;;;1.80;0.70;;;1.70;99.90;;;;;;5014892;28;20109;-82
2023/01/17 02:11:57;;;;;;;2.33;0.97;;;1.70;99.90;;;;;;5033110;28;20021;-82
2023/01/17 02:14:24;;;;;;;1.33;0.93;;;1.60;99.90;;;;;;5027143;28;20030;-83
2023/01/17 02:17:02;;;;;;;1.10;0.70;;;1.60;99.90;;;;;;5025291;28;20419;-82
2023/01/17 02:19:52;;;;;;;1.13;0.80;;;1.60;99.90;;;;;;5032443;28;20022;-82
2023/01/17 02:22:53;;;;;;;2.47;0.90;;;1.60;99.90;;;;;;5012930;28;20018;-82
2023/01/17 02:25:40;;;;;;;2.37;0.80;;;1.50;99.90;;;;;;5029043;28;20029;-82
2023/01/17 02:28:34;;;;;;;1.43;0.87;;;1.60;99.90;;;;;;5030627;28;20056;-82
2023/01/17 02:31:05;;;;;;;1.73;1.00;;;1.60;99.90;;;;;;5013602;28;20759;-82
2023/01/17 02:33:53;;;;;;;1.97;0.90;;;1.60;99.90;;;;;;5032805;28;20184;-82
2023/01/17 02:36:28;;;;;;;1.10;0.80;;;1.60;99.90;;;;;;5018216;28;20030;-80
2023/01/17 02:39:35;;;;;;;1.63;1.00;;;1.60;99.90;;;;;;5036411;28;20043;-82
2023/01/17 02:42:06;;;;;;;1.13;0.70;;;1.60;99.90;;;;;;4959022;28;20071;-82
2023/01/17 02:44:40;;;;;;;1.63;0.80;;;1.50;99.90;;;;;;4975751;28;20019;-82
2023/01/17 02:47:22;;;;;;;3.53;0.97;;;1.60;99.90;;;;;;5004034;28;20121;-82
2023/01/17 02:49:49;;;;;;;1.70;0.90;;;1.50;99.90;;;;;;5032664;28;20026;-82
2023/01/17 02:52:25;;;;;;;3.40;0.90;;;1.50;99.90;;;;;;5035246;28;20041;-82
2023/01/17 02:55:09;;;;;;;2.50;0.90;;;1.40;99.90;;;;;;5036149;28;20108;-82
2023/01/17 02:58:13;;;;;;;2.60;0.80;;;1.50;99.90;;;;;;5030037;28;20037;-82
2023/01/17 03:00:57;;;;;;;1.30;0.80;;;1.50;99.90;;;;;;5024337;28;20036;-82
2023/01/17 03:03:44;;;;;;;2.13;0.83;;;1.40;99.90;;;;;;5016165;28;20022;-82
2023/01/17 03:06:18;;;;;;;2.13;0.70;;;1.30;99.90;;;;;;5017501;28;20014;-82
2023/01/17 03:08:46;;;;;;;1.45;0.98;;;1.20;99.90;;;;;;5033371;28;20029;-82
2023/01/17 03:11:13;;;;;;;1.03;0.80;;;1.20;99.90;;;;;;5031493;28;20029;-82
2023/01/17 03:13:40;;;;;;;1.37;0.87;;;1.10;99.90;;;;;;5033428;28;20021;-82
2023/01/17 03:16:10;;;;;;;1.87;0.83;;;1.10;99.90;;;;;;5034431;28;20441;-82
2023/01/17 03:18:35;;;;;;;1.33;0.80;;;1.00;99.90;;;;;;5029120;28;20471;-82
2023/01/17 03:21:01;;;;;;;2.80;0.80;;;1.00;99.90;;;;;;5035646;28;20091;-82
2023/01/17 03:23:26;;;;;;;3.17;1.00;;;0.90;99.90;;;;;;5035530;28;20549;-82
2023/01/17 03:25:52;;;;;;;0.90;0.80;;;0.80;99.90;;;;;;5035823;28;20087;-82
2023/01/17 03:29:14;;;;;;;1.83;0.73;;;0.80;99.90;;;;;;5017670;28;20336;-82
2023/01/17 03:31:39;;;;;;;1.83;0.80;;;0.70;99.90;;;;;;5016281;28;20026;-82
2023/01/17 03:34:05;;;;;;;1.70;0.87;;;0.70;99.90;;;;;;5024966;28;20406;-82
2023/01/17 03:36:30;;;;;;;1.63;0.70;;;0.60;99.90;;;;;;5023414;28;20366;-82
2023/01/17 03:38:56;;;;;;;2.10;1.00;;;0.60;99.90;;;;;;5034347;28;20029;-82
2023/01/17 03:41:21;;;;;;;1.07;0.80;;;0.50;99.90;;;;;;5017276;28;20067;-82
2023/01/17 03:43:47;;;;;;;2.57;0.80;;;0.50;99.90;;;;;;5034304;28;20021;-82
2023/01/17 03:46:24;;;;;;;1.63;0.70;;;0.50;99.90;;;;;;5035277;28;20028;-82
2023/01/17 03:48:50;;;;;;;1.73;0.70;;;0.40;99.90;;;;;;5034926;28;20092;-82
2023/01/17 03:51:16;;;;;;;3.00;0.90;;;0.40;99.90;;;;;;5035566;28;20029;-81
2023/01/17 03:53:42;;;;;;;3.23;0.80;;;0.40;99.90;;;;;;5035166;28;20038;-82
2023/01/17 03:56:08;;;;;;;3.83;0.80;;;0.40;99.90;;;;;;5035201;28;20049;-82
2023/01/17 03:58:34;;;;;;;0.93;0.73;;;0.30;99.90;;;;;;5034677;28;20072;-82
2023/01/17 04:00:59;;;;;;;1.90;0.80;;;0.30;99.90;;;;;;5025623;28;20109;-82
2023/01/17 04:03:25;;;;;;;1.30;1.00;;;0.30;99.90;;;;;;5034059;28;20068;-82
2023/01/17 04:05:50;;;;;;;2.23;1.00;;;0.30;99.90;;;;;;5034597;28;20017;-82
2023/01/17 04:08:16;;;;;;;1.70;0.93;;;0.20;99.90;;;;;;5034728;28;20084;-82
2023/01/17 04:10:41;;;;;;;1.60;1.37;;;0.20;99.90;;;;;;5034631;28;20029;-82
2023/01/17 04:13:07;;;;;;;1.97;0.87;;;0.20;99.90;;;;;;5016620;28;20486;-82
2023/01/17 04:15:33;;;;;;;1.70;0.80;;;0.20;99.90;;;;;;5034840;28;20026;-82
2023/01/17 04:17:58;;;;;;;2.57;0.97;;;0.30;99.90;;;;;;5017445;28;20029;-82
2023/01/17 04:20:31;;;;;;;1.70;1.00;;;0.30;99.90;;;;;;5034231;28;20048;-82
2023/01/17 04:22:56;;;;;;;1.57;0.90;;;0.40;99.90;;;;;;5034446;28;20021;-82
2023/01/17 04:25:24;;;;;;;1.10;1.00;;;0.40;99.90;;;;;;5034621;28;20018;-82
2023/01/17 04:27:50;;;;;;;3.00;0.90;;;0.40;99.90;;;;;;5034209;28;20093;-82
2023/01/17 04:30:16;;;;;;;2.07;1.13;;;0.40;99.90;;;;;;5016750;28;20029;-82
2023/01/17 04:32:41;;;;;;;1.43;0.83;;;0.40;99.90;;;;;;5034240;28;20084;-82
2023/01/17 04:35:08;;;;;;;2.07;1.00;;;0.40;99.90;;;;;;5034237;28;20087;-82
2023/01/17 04:37:34;;;;;;;1.90;1.10;;;0.40;99.90;;;;;;5031775;28;20038;-82
2023/01/17 04:40:00;;;;;;;1.10;0.90;;;0.40;99.90;;;;;;5016397;28;20106;-82
2023/01/17 04:42:25;;;;;;;1.77;1.10;;;0.30;99.90;;;;;;5033912;28;20025;-82
2023/01/17 04:44:51;;;;;;;3.13;1.43;;;0.30;99.90;;;;;;5033130;28;20037;-83
2023/01/17 04:47:19;;;;;;;4.57;1.03;;;0.30;99.90;;;;;;5031215;28;20041;-83
2023/01/17 04:49:44;;;;;;;1.80;1.00;;;0.30;99.90;;;;;;5027824;28;20049;-83
2023/01/17 04:52:10;;;;;;;2.40;1.17;;;0.40;99.90;;;;;;5028829;28;20107;-88
2023/01/17 04:54:36;;;;;;;1.20;0.90;;;0.40;99.90;;;;;;5026861;28;20021;-88
2023/01/17 04:57:01;;;;;;;1.40;0.80;;;0.40;99.90;;;;;;5032609;28;20028;-88
2023/01/17 04:59:27;;;;;;;4.23;1.97;;;0.40;99.90;;;;;;5029540;28;20143;-88
2023/01/17 05:01:52;;;;;;;4.47;1.70;;;0.40;99.90;;;;;;5007634;28;20037;-88
2023/01/17 05:04:18;;;;;;;4.67;2.87;;;0.40;99.90;;;;;;5007638;28;20062;-87
2023/01/17 05:06:44;;;;;;;4.10;2.00;;;0.40;99.90;;;;;;5031117;28;20032;-88
2023/01/17 05:09:10;;;;;;;2.13;1.10;;;0.30;99.90;;;;;;5027828;28;20025;-89
2023/01/17 05:11:35;;;;;;;1.97;1.10;;;0.30;99.90;;;;;;5025732;28;20069;-88
2023/01/17 05:14:01;;;;;;;1.10;0.90;;;0.30;99.90;;;;;;5022828;28;20083;-88
2023/01/17 05:16:26;;;;;;;1.17;0.90;;;0.30;99.90;;;;;;5008969;28;20385;-90
2023/01/17 05:18:52;;;;;;;2.40;0.90;;;0.40;99.90;;;;;;5006123;28;20095;-90
2023/01/17 05:21:19;;;;;;;1.70;0.90;;;0.40;99.90;;;;;;5024843;28;20366;-90
2023/01/17 05:23:44;;;;;;;2.57;0.90;;;0.50;99.90;;;;;;5034032;28;20044;-89
2023/01/17 05:26:10;;;;;;;3.07;0.93;;;0.60;99.90;;;;;;5030755;28;20030;-90
2023/01/17 05:28:36;;;;;;;0.90;0.70;;;0.60;99.90;;;;;;5030139;28;20029;-82
2023/01/17 05:31:01;;;;;;;3.63;1.10;;;0.70;99.90;;;;;;5018282;28;20485;-83
2023/01/17 05:33:27;;;;;;;1.30;0.83;;;0.70;99.90;;;;;;5029849;28;20040;-82
2023/01/17 05:35:52;;;;;;;1.47;1.00;;;0.90;99.90;;;;;;5030094;28;20120;-83
2023/01/17 05:38:18;;;;;;;2.03;1.10;;;1.00;99.90;;;;;;5028048;28;20148;-83
2023/01/17 05:40:43;;;;;;;3.60;1.10;;;0.90;99.90;;;;;;5017666;28;20053;-82
2023/01/17 05:43:09;;;;;;;1.10;1.00;;;0.90;99.90;;;;;;5031852;28;20045;-83
2023/01/17 05:45:34;;;;;;;2.20;1.20;;;0.90;99.90;;;;;;5031980;28;20045;-82
2023/01/17 05:48:01;;;;;;;2.80;1.27;;;0.80;99.90;;;;;;5032871;28;20033;-83
2023/01/17 05:50:33;;;;;;;2.03;1.13;;;0.70;99.90;;;;;;5032316;28;20473;-83
2023/01/17 05:53:11;;;;;;;2.23;1.30;;;0.60;99.90;;;;;;4997684;28;20120;-86
2023/01/17 05:55:37;;;;;;;4.20;1.17;;;0.50;99.90;;;;;;5012611;28;20037;-86
2023/01/17 05:58:03;;;;;;;1.53;1.00;;;0.40;99.90;;;;;;5014077;28;20026;-86
2023/01/17 06:00:30;;;;;;;2.73;1.10;;;0.40;99.90;;;;;;5029130;28;20128;-91
2023/01/17 06:02:57;;;;;;;1.67;1.20;;;0.30;99.90;;;;;;5017614;28;20032;-87
2023/01/17 06:05:24;;;;;;;1.43;0.90;;;0.30;99.90;;;;;;5030688;28;20388;-87
2023/01/17 06:07:50;;;;;;;1.80;1.10;;;0.20;99.90;;;;;;5013559;28;20109;-87
2023/01/17 06:10:17;;;;;;;2.03;1.00;;;0.20;99.90;;;;;;5031513;28;20061;-85
2023/01/17 06:12:44;;;;;;;2.00;0.90;;;0.20;99.90;;;;;;5025638;28;20038;-83
2023/01/17 06:15:10;;;;;;;1.43;1.00;;;0.20;99.90;;;;;;5027782;28;20041;-83
2023/01/17 06:17:36;;;;;;;1.83;1.00;;;0.20;99.90;;;;;;5028242;28;20086;-87
2023/01/17 06:20:04;;;;;;;2.23;1.10;;;0.10;99.90;;;;;;5032961;28;20121;-87
2023/01/17 06:22:29;;;;;;;3.03;1.13;;;0.20;99.90;;;;;;5014937;28;20381;-87
2023/01/17 06:24:55;;;;;;;1.23;0.80;;;0.10;99.90;;;;;;5032878;28;20018;-87
2023/01/17 06:27:21;;;;;;;2.40;1.00;;;0.20;99.90;;;;;;5032855;28;20530;-87
2023/01/17 06:29:46;;;;;;;3.13;1.33;;;0.10;99.90;;;;;;5032892;28;20040;-87
2023/01/17 06:32:13;;;;;;;4.60;2.00;;;0.10;99.90;;;;;;5032594;28;20029;-87
2023/01/17 06:34:39;;;;;;;3.63;1.77;;;0.10;99.90;;;;;;5032454;28;20343;-87
2023/01/17 06:37:04;;;;;;;3.43;1.50;;;0.10;99.90;;;;;;5032326;28;20032;-87
2023/01/17 06:39:30;;;;;;;2.27;1.30;;;0.20;99.90;;;;;;5032417;28;20117;-87
2023/01/17 06:41:55;;;;;;;2.33;1.10;;;0.20;99.90;;;;;;5032813;28;20056;-87
2023/01/17 06:44:21;;;;;;;5.93;1.13;;;0.10;99.90;;;;;;5033110;28;20057;-88
2023/01/17 06:46:47;;;;;;;4.27;1.43;;;0.10;99.90;;;;;;5015418;28;20052;-87
2023/01/17 06:49:13;;;;;;;3.47;1.20;;;0.10;99.90;;;;;;5032684;28;20079;-87
2023/01/17 06:51:39;;;;;;;3.40;1.20;;;0.10;99.90;;;;;;5041437;28;20061;-87
2023/01/17 06:54:05;;;;;;;3.30;1.40;;;0.10;99.90;;;;;;5050605;28;20029;-87
2023/01/17 06:56:31;;;;;;;2.20;1.30;;;0.00;99.90;;;;;;5037787;28;20034;-88
2023/01/17 06:58:57;;;;;;;3.47;1.50;;;0.00;99.90;;;;;;5048656;28;20026;-88
2023/01/17 07:01:22;;;;;;;3.87;1.30;;;0.00;99.90;;;;;;5050743;28;20040;-87
2023/01/17 07:03:48;;;;;;;4.30;1.20;;;-0.10;99.90;;;;;;5047618;28;20030;-88
2023/01/17 07:06:14;;;;;;;3.00;1.40;;;-0.10;99.90;;;;;;5051594;28;20064;-87
2023/01/17 07:08:39;;;;;;;4.70;1.57;;;-0.10;99.90;;;;;;5046791;28;20033;-88
2023/01/17 07:11:06;;;;;;;3.60;1.50;;;-0.10;99.90;;;;;;5041447;28;20097;-87
2023/01/17 07:13:39;;;;;;;2.50;1.20;;;-0.20;99.90;;;;;;5026363;28;20053;-88
2023/01/17 07:16:05;;;;;;;5.17;1.60;;;-0.20;99.90;;;;;;5022683;28;20029;-87
2023/01/17 07:18:33;;;;;;;3.43;1.40;;;-0.20;99.90;;;;;;5012474;28;20060;-87
2023/01/17 07:20:59;;;;;;;2.90;1.40;;;-0.30;99.90;;;;;;5031054;28;20037;-88
2023/01/17 07:23:25;;;;;;;5.17;1.60;;;-0.30;99.90;;;;;;5031535;28;20047;-87
2023/01/17 07:25:59;;;;;;;2.70;1.50;;;-0.30;99.90;;;;;;5032207;28;20022;-88
2023/01/17 07:28:26;;;;;;;3.10;1.47;;;-0.30;99.90;;;;;;5030350;28;20037;-88
2023/01/17 07:30:52;;;;;;;4.23;1.60;;;-0.30;99.90;;;;;;5030476;28;20034;-91
2023/01/17 07:33:17;;;;;;;3.20;1.37;;;-0.30;99.90;;;;;;5032817;28;20316;-91
2023/01/17 07:35:43;;;;;;;5.20;2.07;;;-0.30;99.90;;;;;;5030359;28;20521;-91
2023/01/17 07:38:19;;;;;;;4.97;2.10;;;-0.30;99.90;;;;;;5031236;28;20033;-91
2023/01/17 07:40:45;;;;;;;;;;;-0.30;99.90;;;;;;5013968;28;20046;-91
2023/01/17 07:43:12;;;;;;;4.43;2.40;;;-0.30;99.90;;;;;;5035819;28;19905;-91
2023/01/17 07:45:50;;;;;;;3.87;1.80;;;-0.30;99.90;;;;;;5014991;28;20021;-93
2023/01/17 07:48:17;;;;;;;4.07;2.00;;;-0.30;99.90;;;;;;5031602;28;20021;-91
2023/01/17 07:50:43;;;;;;;5.00;1.80;;;-0.30;99.90;;;;;;5024856;28;20036;-91
2023/01/17 07:53:09;;;;;;;3.70;1.87;;;-0.30;99.90;;;;;;5036417;28;20029;-84
2023/01/17 07:55:35;;;;;;;3.23;1.77;;;-0.30;99.90;;;;;;5034028;28;20032;-84
2023/01/17 07:58:01;;;;;;;3.10;1.43;;;-0.30;99.90;;;;;;5016726;28;20025;-85
2023/01/17 08:00:26;;;;;;;2.97;1.37;;;-0.30;99.90;;;;;;5034402;28;20025;-85
2023/01/17 08:02:59;;;;;;;3.47;1.40;;;-0.20;99.90;;;;;;5034687;28;20492;-85
2023/01/17 08:05:26;;;;;;;4.20;2.10;;;-0.20;99.90;;;;;;5034511;28;20361;-85
2023/01/17 08:07:51;;;;;;;5.13;2.00;;;-0.20;99.90;;;;;;5034269;28;20075;-85
2023/01/17 08:10:18;;;;;;;3.77;1.57;;;-0.10;99.90;;;;;;5034146;28;20419;-85
2023/01/17 08:12:47;;;;;;;5.97;1.70;;;-0.10;99.90;;;;;;5034835;28;20030;-85
2023/01/17 08:15:14;;;;;;;7.30;2.00;;;0.00;99.90;;;;;;5034279;28;20021;-85
2023/01/17 08:17:47;;;;;;;14.13;4.73;;;0.00;99.90;;;;;;5033646;28;20032;-85
2023/01/17 08:20:14;;;;;;;16.17;5.07;;;0.20;99.90;;;;;;5034416;28;20057;-85
2023/01/17 08:22:39;;;;;;;10.77;3.67;;;0.20;99.90;;;;;;5034256;28;20032;-85
2023/01/17 08:25:05;;;;;;;5.40;2.17;;;0.30;99.90;;;;;;5034246;28;20025;-85
2023/01/17 08:27:30;;;;;;;4.87;2.20;;;0.40;99.90;;;;;;5033555;28;20025;-85
2023/01/17 08:29:56;;;;;;;6.67;4.47;;;0.50;99.90;;;;;;5033744;28;20429;-85
2023/01/17 08:32:22;;;;;;;8.87;4.63;;;0.60;99.90;;;;;;5034371;28;20442;-85
2023/01/17 08:34:47;;;;;;;20.90;19.13;;;0.60;99.90;;;;;;5032934;28;20029;-91
2023/01/17 08:37:13;;;;;;;14.03;12.63;;;0.80;99.90;;;;;;5011335;28;20053;-91
2023/01/17 08:39:38;;;;;;;5.30;3.83;;;0.90;99.90;;;;;;5029752;28;20068;-91
2023/01/17 08:42:04;;;;;;;2.93;1.83;;;1.00;99.90;;;;;;5028001;28;20056;-91
2023/01/17 08:44:30;;;;;;;5.47;1.90;;;1.10;99.90;;;;;;5032375;28;20504;-91
2023/01/17 08:46:55;;;;;;;4.87;1.70;;;1.20;99.90;;;;;;5033514;28;20095;-90
2023/01/17 08:49:21;;;;;;;6.27;1.63;;;1.20;99.90;;;;;;5014077;28;20047;-85
2023/01/17 08:51:46;;;;;;;3.40;1.80;;;1.30;99.90;;;;;;5033779;28;20408;-82
2023/01/17 08:54:14;;;;;;;6.27;1.77;;;1.50;99.90;;;;;;5015180;28;20530;-82
2023/01/17 08:56:41;;;;;;;6.70;1.67;;;1.50;99.90;;;;;;5032927;28;20045;-82
2023/01/17 08:59:10;;;;;;;5.67;1.70;;;1.60;99.90;;;;;;5033266;28;20022;-82
2023/01/17 09:01:39;;;;;;;4.17;2.07;;;1.70;99.90;;;;;;5033563;28;20414;-82
2023/01/17 09:04:05;;;;;;;7.27;1.37;;;1.80;99.90;;;;;;5027765;28;20029;-82
2023/01/17 09:06:31;;;;;;;4.77;1.77;;;1.90;99.90;;;;;;5018679;28;20366;-82
2023/01/17 09:08:58;;;;;;;3.33;1.53;;;2.00;99.90;;;;;;5033219;28;20091;-82
2023/01/17 09:11:23;;;;;;;6.03;1.50;;;2.10;99.90;;;;;;5015633;28;20024;-82
2023/01/17 09:13:49;;;;;;;5.13;1.50;;;2.10;99.90;;;;;;5033285;28;20033;-82
2023/01/17 09:16:14;;;;;;;6.07;2.30;;;2.20;99.90;;;;;;5033145;28;20030;-82
2023/01/17 09:18:40;;;;;;;5.63;1.67;;;2.30;99.90;;;;;;5033284;28;20040;-82
2023/01/17 09:21:11;;;;;;;4.40;1.40;;;2.40;99.90;;;;;;5033063;28;20029;-82
2023/01/17 09:23:36;;;;;;;3.10;1.47;;;2.40;99.90;;;;;;5032743;28;20347;-82
2023/01/17 09:26:02;;;;;;;3.20;1.10;;;2.50;99.90;;;;;;5033046;28;20040;-82
2023/01/17 09:28:28;;;;;;;2.57;1.00;;;2.60;99.90;;;;;;5018993;28;20029;-82
2023/01/17 09:30:53;;;;;;;4.00;1.20;;;2.60;99.90;;;;;;4996031;28;21423;-85
2023/01/17 09:33:20;;;;;;;3.50;1.17;;;2.60;99.90;;;;;;5027731;28;20892;-89
2023/01/17 09:35:46;;;;;;;6.10;1.20;;;2.60;99.90;;;;;;5010491;28;20084;-84
2023/01/17 09:38:12;;;;;;;3.47;1.30;;;2.60;99.90;;;;;;5032777;28;20064;-84
2023/01/17 09:40:46;;;;;;;4.20;1.23;;;2.70;99.90;;;;;;5032314;28;20127;-85
2023/01/17 09:43:42;;;;;;;6.40;1.30;;;2.70;99.90;;;;;;5008958;28;20097;-84
2023/01/17 09:46:21;;;;;;;3.77;1.30;;;2.70;99.90;;;;;;5026045;28;20430;-85
2023/01/17 09:48:54;;;;;;;1.10;0.90;;;2.80;99.90;;;;;;5015128;28;20524;-84
2023/01/17 09:51:25;;;;;;;2.00;1.00;;;2.80;99.90;;;;;;5023863;28;20108;-84
2023/01/17 09:53:52;;;;;;;4.27;1.53;;;2.80;99.90;;;;;;5032258;28;20179;-80
2023/01/17 09:56:30;;;;;;;3.20;1.17;;;2.90;99.90;;;;;;5014865;28;20036;-85
2023/01/17 09:59:23;;;;;;;1.70;1.23;;;3.00;99.90;;;;;;5013231;28;20482;-85
2023/01/17 10:02:05;;;;;;;3.33;1.03;;;3.00;99.90;;;;;;4998008;28;20021;-85
2023/01/17 10:04:54;;;;;;;1.20;0.80;;;3.10;99.90;;;;;;5032799;28;20025;-85
2023/01/17 10:07:35;;;;;;;2.00;0.70;;;3.00;99.90;;;;;;5019240;28;20030;-84
2023/01/17 10:10:17;;;;;;;9.33;5.30;;;3.00;99.90;;;;;;5030452;28;20025;-84
2023/01/17 10:12:57;;;;;;;61.40;30.57;;;3.00;99.90;;;;;;5032500;28;20032;-85
2023/01/17 10:15:34;;;;;;;16.47;8.90;;;2.90;99.90;;;;;;5032477;28;20504;-85
2023/01/17 10:18:21;;;;;;;2.40;1.13;;;3.00;99.90;;;;;;5032572;28;20026;-85
2023/01/17 10:21:01;;;;;;;4.43;2.33;;;3.00;99.90;;;;;;5027743;28;20021;-85
2023/01/17 10:23:33;;;;;;;2.63;1.10;;;3.30;99.90;;;;;;5032812;28;20025;-85
2023/01/17 10:26:08;;;;;;;3.10;2.10;;;3.40;99.90;;;;;;5032900;28;20075;-84
2023/01/17 10:28:47;;;;;;;3.03;1.40;;;3.40;99.90;;;;;;5032362;28;20033;-85
2023/01/17 10:31:29;;;;;;;2.67;1.50;;;3.50;99.90;;;;;;5020869;28;20037;-88
2023/01/17 10:33:59;;;;;;;4.70;1.53;;;3.60;99.90;;;;;;5033980;28;20077;-88
2023/01/17 10:36:37;;;;;;;1.93;1.00;;;3.70;99.90;;;;;;5048651;28;20030;-88
2023/01/17 10:39:23;;;;;;;2.17;1.10;;;3.70;99.90;;;;;;5034938;28;20041;-87
2023/01/17 10:41:56;;;;;;;2.10;1.03;;;3.80;99.90;;;;;;5022121;28;20485;-89
2023/01/17 10:44:39;;;;;;;3.30;1.20;;;3.90;99.90;;;;;;5015148;28;20021;-88
2023/01/17 10:47:11;;;;;;;2.77;1.00;;;4.00;99.90;;;;;;5016411;28;20022;-84
2023/01/17 10:49:45;;;;;;;2.13;0.80;;;4.00;99.90;;;;;;5019113;28;20025;-84
2023/01/17 10:52:22;;;;;;;1.40;0.80;;;4.10;99.90;;;;;;5035726;28;20033;-84
2023/01/17 10:55:02;;;;;;;3.23;0.90;;;4.20;99.90;;;;;;5042434;28;20045;-85
2023/01/17 10:57:32;;;;;;;2.07;1.00;;;4.20;99.90;;;;;;5004753;28;20061;-84
2023/01/17 11:00:00;;;;;;;3.50;1.10;;;4.20;99.90;;;;;;5017918;28;20112;-84
2023/01/17 11:02:25;;;;;;;5.97;1.30;;;4.10;99.90;;;;;;5035975;28;20017;-85
2023/01/17 11:04:54;;;;;;;3.87;1.47;;;4.00;99.90;;;;;;5035619;28;20026;-84
2023/01/17 11:07:24;;;;;;;1.83;1.10;;;4.00;99.90;;;;;;5035731;28;20031;-84
2023/01/17 11:09:52;;;;;;;4.13;1.20;;;4.00;99.90;;;;;;5035970;28;20379;-85
2023/01/17 11:12:37;;;;;;;30.27;17.10;;;3.90;99.90;;;;;;5015827;28;20054;-85
2023/01/17 11:15:09;;;;;;;36.17;12.68;;;3.90;99.90;;;;;;5016685;28;20026;-84
2023/01/17 11:17:51;;;;;;;178.03;53.27;;;3.90;99.90;;;;;;5035388;28;20025;-84
2023/01/17 11:20:28;;;;;;;17.77;9.93;;;3.90;99.90;;;;;;5036065;28;20017;-85
2023/01/17 11:23:03;;;;;;;4.43;1.97;;;3.90;99.90;;;;;;5035773;28;20467;-85
2023/01/17 11:25:32;;;;;;;5.78;1.55;;;3.90;99.90;;;;;;5017633;28;20047;-85
2023/01/17 11:28:19;;;;;;;2.70;1.30;;;3.90;99.90;;;;;;5032650;28;20033;-84
2023/01/17 11:30:55;;;;;;;3.87;1.40;;;3.90;99.90;;;;;;5035271;28;20115;-84
2023/01/17 11:33:45;;;;;;;3.03;1.20;;;4.00;99.90;;;;;;5033958;28;20080;-79
2023/01/17 11:36:23;;;;;;;3.13;1.37;;;4.00;99.90;;;;;;5024894;28;20030;-79
2023/01/17 11:39:04;;;;;;;1.20;0.70;;;4.00;99.90;;;;;;5031210;28;20030;-79
2023/01/17 11:41:38;;;;;;;3.20;1.10;;;4.10;99.90;;;;;;5033513;28;20049;-80
2023/01/17 11:44:25;;;;;;;1.60;0.90;;;4.10;99.90;;;;;;5029555;28;20377;-79
2023/01/17 11:47:17;;;;;;;6.50;1.00;;;4.10;99.90;;;;;;5031896;28;20029;-79
2023/01/17 11:49:46;;;;;;;3.77;1.37;;;4.10;99.90;;;;;;5033049;28;20104;-79
2023/01/17 11:52:38;;;;;;;3.87;1.07;;;4.00;99.90;;;;;;5008470;28;20037;-79
2023/01/17 11:55:05;;;;;;;3.30;1.00;;;4.00;99.90;;;;;;5014792;28;20025;-79
2023/01/17 11:57:33;;;;;;;4.40;1.20;;;4.10;99.90;;;;;;5034344;28;20369;-79
2023/01/17 12:00:18;;;;;;;2.90;0.90;;;4.10;99.90;;;;;;5034341;28;20490;-79
2023/01/17 12:02:57;;;;;;;2.22;1.00;;;4.00;99.90;;;;;;5024150;28;20104;-79
2023/01/17 12:05:33;;;;;;;3.80;0.90;;;4.10;99.90;;;;;;5029397;28;20079;-79
2023/01/17 12:08:04;;;;;;;2.27;1.13;;;4.00;99.90;;;;;;5015548;28;20029;-79
2023/01/17 12:11:03;;;;;;;2.87;1.30;;;4.10;99.90;;;;;;5023030;28;20144;-82
2023/01/17 12:14:00;;;;;;;2.27;1.00;;;4.10;99.90;;;;;;5018230;28;20496;-83
2023/01/17 12:17:05;;;;;;;1.80;1.00;;;4.00;99.90;;;;;;5018373;28;20037;-82
2023/01/17 12:19:40;;;;;;;2.03;0.80;;;4.00;99.90;;;;;;5018425;28;21389;-82
2023/01/17 12:22:38;;;;;;;2.92;1.10;;;4.00;99.90;;;;;;4998297;28;20038;-82
2023/01/17 12:25:17;;;;;;;2.90;1.07;;;3.90;99.90;;;;;;5017082;28;20038;-82
2023/01/17 12:28:02;;;;;;;2.17;1.20;;;3.90;99.90;;;;;;5018495;28;20087;-82
2023/01/17 12:30:29;;;;;;;2.30;0.90;;;3.90;99.90;;;;;;4998532;28;20247;-82
2023/01/17 12:33:24;;;;;;;1.83;1.00;;;3.90;99.90;;;;;;5017662;28;20037;-83
2023/01/17 12:36:06;;;;;;;3.30;1.00;;;3.80;99.90;;;;;;4934831;28;20158;-82
2023/01/17 12:38:36;;;;;;;2.07;1.00;;;3.80;99.90;;;;;;5016674;28;20030;-82
2023/01/17 12:41:12;;;;;;;2.13;1.10;;;3.80;99.90;;;;;;5015545;28;20056;-82
2023/01/17 12:43:43;;;;;;;3.30;1.30;;;3.90;99.90;;;;;;4996178;28;20117;-82
2023/01/17 12:46:29;;;;;;;2.47;1.30;;;3.90;99.90;;;;;;4993772;28;20069;-82
2023/01/17 12:49:15;;;;;;;4.73;1.30;;;3.90;99.90;;;;;;5016627;28;20133;-82
2023/01/17 12:51:43;;;;;;;7.17;3.13;;;3.90;99.90;;;;;;5013894;28;20555;-82
2023/01/17 12:54:27;;;;;;;3.43;1.70;;;3.90;99.90;;;;;;5009844;28;20029;-82
2023/01/17 12:56:59;;;;;;;3.00;1.70;;;3.90;99.90;;;;;;5012567;28;20030;-87
2023/01/17 12:59:47;;;;;;;2.47;1.77;;;3.90;99.90;;;;;;5015683;28;20169;-87
2023/01/17 13:02:34;;;;;;;2.40;1.20;;;3.90;99.90;;;;;;5014438;28;20191;-87
2023/01/17 13:05:16;;;;;;;2.57;1.07;;;3.90;99.90;;;;;;5014716;28;20025;-87
2023/01/17 13:08:12;;;;;;;3.93;1.40;;;3.90;99.90;;;;;;5014138;28;20033;-87
2023/01/17 13:10:53;;;;;;;;;;;3.80;99.90;;;;;;5016503;28;20918;-86
2023/01/17 13:13:27;;;;;;;1.83;1.10;;;3.80;99.90;;;;;;5014324;28;20044;-87
2023/01/17 13:15:59;;;;;;;3.40;1.00;;;3.80;99.90;;;;;;4997937;28;20037;-87
2023/01/17 13:18:28;;;;;;;1.13;1.03;;;3.70;99.90;;;;;;4997145;28;20164;-87
2023/01/17 13:21:15;;;;;;;5.37;1.10;;;3.70;99.90;;;;;;5016958;28;20490;-87
2023/01/17 13:24:00;;;;;;;1.97;1.30;;;3.60;99.90;;;;;;5015306;28;20116;-87
2023/01/17 13:26:42;;;;;;;2.42;1.17;;;3.60;99.90;;;;;;5017947;28;20370;-88
2023/01/17 13:29:26;;;;;;;5.30;1.50;;;3.60;99.90;;;;;;5016020;28;20018;-87
2023/01/17 13:32:29;;;;;;;3.10;1.90;;;3.60;99.90;;;;;;5014644;28;20060;-87
2023/01/17 13:35:25;;;;;;;4.10;2.00;;;3.60;99.90;;;;;;5016526;28;20149;-87
2023/01/17 13:38:06;;;;;;;4.17;1.47;;;3.70;99.90;;;;;;5017215;28;20036;-87
2023/01/17 13:41:06;;;;;;;4.50;1.40;;;3.70;99.90;;;;;;5016761;28;20095;-87
2023/01/17 13:43:38;;;;;;;2.57;1.20;;;3.70;99.90;;;;;;4971691;28;20034;-87
2023/01/17 13:46:05;;;;;;;1.70;1.17;;;3.80;99.90;;;;;;5018447;28;20022;-87
2023/01/17 13:48:37;;;;;;;4.87;1.40;;;3.90;99.90;;;;;;5015982;28;20030;-87
2023/01/17 13:51:09;;;;;;;2.83;1.30;;;3.90;99.90;;;;;;4991915;28;21473;-87
2023/01/17 13:53:35;;;;;;;1.90;1.30;;;4.00;99.90;;;;;;4995954;28;20029;-82
2023/01/17 13:56:25;;;;;;;3.10;1.10;;;4.00;99.90;;;;;;4991037;28;20021;-82
2023/01/17 13:58:53;;;;;;;2.73;1.37;;;4.10;99.90;;;;;;4990268;28;20037;-83
2023/01/17 14:01:21;;;;;;;3.93;1.03;;;4.10;99.90;;;;;;4987020;28;20065;-87
2023/01/17 14:03:53;;;;;;;2.47;1.10;;;4.20;99.90;;;;;;4968274;28;20127;-83
2023/01/17 14:06:37;;;;;;;2.07;1.20;;;4.20;99.90;;;;;;4968410;28;21666;-82
2023/01/17 14:09:11;;;;;;;2.00;1.10;;;4.10;99.90;;;;;;4986772;28;20038;-83
2023/01/17 14:12:03;;;;;;;4.85;2.40;;;4.00;99.90;;;;;;4986283;28;20040;-82
2023/01/17 14:14:43;;;;;;;1.60;1.30;;;3.90;99.90;;;;;;5009246;28;20083;-79
2023/01/17 14:17:15;;;;;;;3.70;1.80;;;3.80;99.90;;;;;;5034968;28;20037;-79
2023/01/17 14:19:41;;;;;;;4.80;2.90;;;3.70;99.90;;;;;;5034434;28;20036;-79
2023/01/17 14:22:17;;;;;;;3.33;1.50;;;3.60;99.90;;;;;;5035869;28;20025;-79
2023/01/17 14:25:01;;;;;;;;;;;3.50;99.90;;;;;;5034450;28;20025;-79
2023/01/17 14:27:28;;;;;;;2.93;1.43;;;3.50;99.90;;;;;;5029468;28;19951;-79
2023/01/17 14:29:58;;;;;;;5.13;1.67;;;3.40;99.90;;;;;;5032667;28;20022;-79
2023/01/17 14:32:34;;;;;;;4.50;1.70;;;3.30;99.90;;;;;;5036105;28;20037;-79
2023/01/17 14:35:00;;;;;;;;;;;3.20;99.90;;;;;;5035176;28;20021;-79
2023/01/17 14:37:44;;;;;;;4.67;2.07;;;3.10;99.90;;;;;;5024090;28;19936;-86
2023/01/17 14:40:24;;;;;;;3.77;1.90;;;3.10;99.90;;;;;;5018100;28;20093;-86
2023/01/17 14:43:04;;;;;;;4.03;2.20;;;3.00;99.90;;;;;;4995225;28;20030;-82
2023/01/17 14:45:35;;;;;;;7.17;2.30;;;2.90;99.90;;;;;;5016091;28;20025;-82
2023/01/17 14:48:04;;;;;;;3.30;1.80;;;2.90;99.90;;;;;;5014662;28;20148;-82